createdAt,value
2022-09-13T00:01:34.575Z,95518.00
2022-09-13T00:04:20.429Z,95517.38
2022-09-13T00:07:06.313Z,95515.50
2022-09-13T00:09:52.154Z,95514.91
2022-09-13T00:12:38.139Z,95518.19
2022-09-13T00:15:24.211Z,95526.53
2022-09-13T00:18:10.164Z,95523.00
2022-09-13T00:21:17.291Z,95524.06
2022-09-13T00:24:03.214Z,95504.13
2022-09-13T00:26:49.104Z,95510.66
2022-09-13T00:29:34.879Z,95487.50
2022-09-13T00:32:20.818Z,95508.13
2022-09-13T00:35:07.801Z,95505.41
2022-09-13T00:37:53.725Z,95512.03
2022-09-13T00:40:39.621Z,95508.06
2022-09-13T00:43:48.558Z,95510.63
2022-09-13T00:46:42.728Z,95503.09
2022-09-13T00:49:39.474Z,95508.28
2022-09-13T00:52:27.641Z,95501.63
2022-09-13T00:55:20.182Z,95501.63
2022-09-13T00:58:09.655Z,95508.88
2022-09-13T01:00:58.609Z,95488.56
2022-09-13T01:03:45.093Z,95498.47
2022-09-13T01:06:34.519Z,95512.81
2022-09-13T01:09:20.540Z,95479.88
2022-09-13T01:12:48.440Z,95500.63
2022-09-13T01:15:34.493Z,95484.88
2022-09-13T01:18:20.729Z,95487.44
2022-09-13T01:21:31.501Z,95500.25
2022-09-13T01:24:29.908Z,95500.53
2022-09-13T01:27:30.306Z,95490.75
2022-09-13T01:30:24.285Z,95483.69
2022-09-13T01:33:49.425Z,95490.91
2022-09-13T01:36:49.621Z,95487.88
2022-09-13T01:39:59.057Z,95489.75
2022-09-13T01:43:03.370Z,95504.69
2022-09-13T01:46:21.075Z,95494.75
2022-09-13T01:49:18.869Z,95479.84
2022-09-13T01:52:18.656Z,95477.59
2022-09-13T01:55:23.387Z,95469.56
2022-09-13T01:58:27.558Z,95463.94
2022-09-13T02:01:21.751Z,95474.50
2022-09-13T02:04:18.397Z,95482.81
2022-09-13T02:07:14.652Z,95486.56
2022-09-13T02:10:06.630Z,95485.94
2022-09-13T02:12:53.485Z,95489.50
2022-09-13T02:15:44.108Z,95485.34
2022-09-13T02:18:40.463Z,95478.78
2022-09-13T02:21:29.956Z,95482.06
2022-09-13T02:24:23.641Z,95475.44
2022-09-13T02:27:13.165Z,95464.31
2022-09-13T02:30:04.229Z,95459.78
2022-09-13T02:32:58.170Z,95472.19
2022-09-13T02:36:16.833Z,95461.03
2022-09-13T02:39:10.467Z,95460.34
2022-09-13T02:42:02.688Z,95468.28
2022-09-13T02:44:51.946Z,95455.66
2022-09-13T02:47:57.458Z,95469.91
2022-09-13T02:50:56.829Z,95469.53
2022-09-13T02:53:56.023Z,95455.28
2022-09-13T02:56:59.292Z,95462.47
2022-09-13T02:59:47.208Z,95475.47
2022-09-13T03:02:34.491Z,95481.88
2022-09-13T03:05:20.644Z,95456.25
2022-09-13T03:08:10.193Z,95477.34
2022-09-13T03:11:18.710Z,95468.03
2022-09-13T03:14:16.900Z,95460.44
2022-09-13T03:17:46.324Z,95474.09
2022-09-13T03:20:53.281Z,95476.16
2022-09-13T03:23:44.928Z,95469.91
2022-09-13T03:26:52.859Z,95464.56
2022-09-13T03:29:54.453Z,95472.84
2022-09-13T03:33:17.873Z,95442.69
2022-09-13T03:36:25.484Z,95428.25
2022-09-13T03:39:20.647Z,95448.69
2022-09-13T03:42:16.449Z,95462.97
2022-09-13T03:45:03.832Z,95474.91
2022-09-13T03:47:50.599Z,95474.16
2022-09-13T03:50:36.866Z,95478.31
2022-09-13T03:53:27.736Z,95479.94
2022-09-13T03:56:15.694Z,95472.53
2022-09-13T03:59:01.621Z,95474.56
2022-09-13T04:01:49.005Z,95476.03
2022-09-13T04:04:35.242Z,95477.44
2022-09-13T04:07:23.900Z,95480.75
2022-09-13T04:10:13.517Z,95473.50
2022-09-13T04:13:00.504Z,95461.72
2022-09-13T04:15:46.385Z,95469.75
2022-09-13T04:18:32.549Z,95473.28
2022-09-13T04:21:18.864Z,95475.56
2022-09-13T04:24:04.944Z,95477.19
2022-09-13T04:26:51.558Z,95455.47
2022-09-13T04:29:37.470Z,95470.34
2022-09-13T04:32:23.512Z,95478.19
2022-09-13T04:35:09.817Z,95471.81
2022-09-13T04:37:57.960Z,95489.78
2022-09-13T04:40:44.016Z,95482.34
2022-09-13T04:43:30.151Z,95499.09
2022-09-13T04:46:16.587Z,95483.59
2022-09-13T04:49:02.444Z,95522.06
2022-09-13T04:51:48.483Z,95513.16
2022-09-13T04:54:34.552Z,95502.16
2022-09-13T04:57:20.577Z,95520.97
2022-09-13T05:00:07.390Z,95518.06
2022-09-13T05:02:56.735Z,95517.84
2022-09-13T05:05:42.591Z,95512.44
2022-09-13T05:08:28.468Z,95519.47
2022-09-13T05:11:14.460Z,95519.03
2022-09-13T05:14:01.233Z,95513.19
2022-09-13T05:16:47.439Z,95506.56
2022-09-13T05:19:33.107Z,95518.31
2022-09-13T05:22:19.009Z,95525.38
2022-09-13T05:25:05.563Z,95519.78
2022-09-13T05:27:51.309Z,95519.16
2022-09-13T05:30:41.654Z,95511.06
2022-09-13T05:33:31.394Z,95522.84
2022-09-13T05:36:18.313Z,95523.44
2022-09-13T05:56:26.553Z,95524.91
2022-09-13T05:59:14.261Z,95522.59
2022-09-13T06:02:00.478Z,95521.75
2022-09-13T06:04:46.724Z,95513.00
2022-09-13T06:07:32.438Z,95517.19
2022-09-13T06:10:18.500Z,95506.69
2022-09-13T06:13:04.667Z,95502.56
2022-09-13T06:15:51.151Z,95515.97
2022-09-13T06:18:37.470Z,95506.16
2022-09-13T06:21:27.139Z,95503.72
2022-09-13T06:24:14.943Z,95510.88
2022-09-13T06:27:00.989Z,95510.00
2022-09-13T06:29:46.948Z,95504.47
2022-09-13T06:32:32.971Z,95506.66
2022-09-13T06:35:18.957Z,95512.41
2022-09-13T06:38:04.822Z,95503.06
2022-09-13T06:41:09.764Z,95495.34
2022-09-13T06:43:58.497Z,95503.88
2022-09-13T06:46:44.819Z,95511.63
2022-09-13T06:49:31.681Z,95507.00
2022-09-13T06:52:17.482Z,95511.88
2022-09-13T06:55:03.700Z,95506.34
2022-09-13T06:57:49.369Z,95518.06
2022-09-13T07:00:35.417Z,95506.66
2022-09-13T07:03:21.401Z,95502.81
2022-09-13T07:06:12.580Z,95515.47
2022-09-13T07:08:59.919Z,95519.94
2022-09-13T07:11:47.191Z,95524.78
2022-09-13T07:14:33.448Z,95526.72
2022-09-13T07:17:19.368Z,95524.88
2022-09-13T07:20:07.261Z,95517.59
2022-09-13T07:22:53.510Z,95519.72
2022-09-13T07:25:39.554Z,95523.03
2022-09-13T07:28:27.472Z,95519.59
2022-09-13T07:31:18.475Z,95538.78
2022-09-13T07:34:08.360Z,95535.75
2022-09-13T07:36:54.427Z,95535.63
2022-09-13T07:39:40.279Z,95530.34
2022-09-13T07:42:26.638Z,95530.38
2022-09-13T07:45:12.941Z,95527.09
2022-09-13T07:47:59.284Z,95530.59
2022-09-13T07:50:45.263Z,95505.75
2022-09-13T07:53:31.991Z,95524.00
2022-09-13T07:56:20.182Z,95523.31
2022-09-13T07:59:10.793Z,95499.25
2022-09-13T08:01:57.316Z,95515.94
2022-09-13T08:04:43.138Z,95512.28
2022-09-13T08:07:29.042Z,95496.25
2022-09-13T08:10:15.003Z,95519.16
2022-09-13T08:13:01.534Z,95496.06
2022-09-13T08:15:48.797Z,95521.00
2022-09-13T08:18:34.995Z,95513.78
2022-09-13T08:21:21.244Z,95507.63
2022-09-13T08:24:08.876Z,95506.44
2022-09-13T08:26:55.506Z,95516.16
2022-09-13T08:29:41.626Z,95505.63
2022-09-13T08:32:27.649Z,95501.38
2022-09-13T08:35:13.557Z,95506.75
2022-09-13T08:38:00.215Z,95507.66
2022-09-13T08:40:51.342Z,95493.66
2022-09-13T08:43:43.290Z,95491.59
2022-09-13T08:46:36.668Z,95479.50
2022-09-13T08:49:29.437Z,95499.59
2022-09-13T08:52:19.873Z,95502.88
2022-09-13T08:55:38.436Z,95499.91
2022-09-13T08:58:41.407Z,95501.88
2022-09-13T09:01:43.037Z,95497.94
2022-09-13T09:04:33.912Z,95500.13
2022-09-13T09:07:27.508Z,95488.06
2022-09-13T09:10:21.099Z,95494.13
2022-09-13T09:13:29.923Z,95471.00
2022-09-13T09:16:25.257Z,95476.16
2022-09-13T09:19:28.431Z,95485.88
2022-09-13T09:22:21.937Z,95486.50
2022-09-13T09:25:11.800Z,95470.94
2022-09-13T09:27:58.575Z,95465.34
2022-09-13T09:31:05.347Z,95474.19
2022-09-13T09:34:00.616Z,95480.19
2022-09-13T09:37:16.881Z,95473.13
2022-09-13T09:40:08.139Z,95462.88
2022-09-13T09:42:54.807Z,95470.50
2022-09-13T09:45:42.926Z,95464.06
2022-09-13T09:48:33.796Z,95453.69
2022-09-13T09:51:20.175Z,95451.66
2022-09-13T09:54:06.351Z,95440.09
2022-09-13T09:56:54.981Z,95454.22
2022-09-13T09:59:40.922Z,95454.75
2022-09-13T10:02:26.983Z,95460.84
2022-09-13T10:05:19.783Z,95452.50
2022-09-13T10:08:07.291Z,95441.88
2022-09-13T10:10:55.549Z,95460.44
2022-09-13T10:14:01.081Z,95427.69
2022-09-13T10:16:46.946Z,95454.84
2022-09-13T10:19:33.235Z,95449.66
2022-09-13T10:22:19.185Z,95443.19
2022-09-13T10:25:27.251Z,95457.31
2022-09-13T10:28:17.120Z,95445.97
2022-09-13T10:31:16.307Z,95436.66
2022-09-13T10:34:12.951Z,95448.72
2022-09-13T10:37:30.797Z,95448.38
2022-09-13T10:40:38.549Z,95453.56
2022-09-13T10:43:25.020Z,95442.47
2022-09-13T10:46:14.967Z,95448.47
2022-09-13T10:49:01.332Z,95447.06
2022-09-13T10:51:47.476Z,95443.31
2022-09-13T10:54:33.230Z,95450.44
2022-09-13T10:57:36.637Z,95450.09
2022-09-13T11:00:31.109Z,95445.09
2022-09-13T11:03:38.945Z,95418.41
2022-09-13T11:06:33.176Z,95439.47
2022-09-13T11:09:25.789Z,95434.19
2022-09-13T11:12:37.086Z,95445.03
2022-09-13T11:15:28.714Z,95436.56
2022-09-13T11:18:38.896Z,95422.31
2022-09-13T11:21:33.408Z,95439.31
2022-09-13T11:24:22.094Z,95424.34
2022-09-13T11:27:34.731Z,95425.75
2022-09-13T11:30:27.765Z,95432.88
2022-09-13T11:33:21.642Z,95437.59
2022-09-13T11:36:23.774Z,95429.09
2022-09-13T11:39:30.838Z,95407.25
2022-09-13T11:42:26.028Z,95422.66
2022-09-13T11:45:35.444Z,95415.84
2022-09-13T11:48:34.816Z,95417.78
2022-09-13T11:51:25.283Z,95424.25
2022-09-13T11:54:52.708Z,95424.25
2022-09-13T11:57:42.373Z,95428.69
2022-09-13T12:00:44.992Z,95406.63
2022-09-13T12:03:36.845Z,95415.72
2022-09-13T12:06:28.340Z,95415.63
2022-09-13T12:09:25.152Z,95400.94
2022-09-13T12:12:13.526Z,95405.78
2022-09-13T12:15:17.394Z,95401.47
2022-09-13T12:18:32.706Z,95401.50
2022-09-13T12:21:25.752Z,95398.25
2022-09-13T12:24:16.984Z,95407.75
2022-09-13T12:27:23.113Z,95397.44
2022-09-13T12:30:21.736Z,95392.56
2022-09-13T12:33:08.090Z,95398.88
2022-09-13T12:36:17.605Z,95398.66
2022-09-13T12:39:50.341Z,95397.56
2022-09-13T12:43:00.516Z,95382.00
2022-09-13T12:46:02.411Z,95391.00
2022-09-13T12:49:03.462Z,95388.28
2022-09-13T12:52:25.390Z,95388.84
2022-09-13T12:55:46.652Z,95391.88
2022-09-13T12:58:39.377Z,95372.22
2022-09-13T13:01:27.191Z,95374.41
2022-09-13T13:04:24.396Z,95374.41
2022-09-13T13:07:19.699Z,95375.53
2022-09-13T13:10:06.633Z,95381.56
2022-09-13T13:12:53.085Z,95360.50
2022-09-13T13:15:39.201Z,95377.22
2022-09-13T13:18:30.673Z,95367.91
2022-09-13T13:21:24.459Z,95358.59
2022-09-13T13:24:16.760Z,95364.06
2022-09-13T13:27:32.652Z,95361.91
2022-09-13T13:30:41.109Z,95352.03
2022-09-13T13:33:29.229Z,95350.09
2022-09-13T13:36:27.805Z,95348.97
2022-09-13T13:39:34.048Z,95340.25
2022-09-13T13:42:25.468Z,95344.50
2022-09-13T13:45:21.612Z,95344.16
2022-09-13T13:48:15.555Z,95339.97
2022-09-13T13:51:11.824Z,95347.06
2022-09-13T13:54:01.132Z,95341.72
2022-09-13T13:56:49.235Z,95344.91
2022-09-13T13:59:36.956Z,95336.03
2022-09-13T14:02:30.703Z,95321.66
2022-09-13T14:05:44.757Z,95341.63
2022-09-13T14:12:00.863Z,95329.00
2022-09-13T14:15:05.368Z,95317.03
2022-09-13T14:18:15.851Z,95327.78
2022-09-13T14:21:18.437Z,95321.91
2022-09-13T14:24:10.112Z,95307.63
2022-09-13T14:27:03.980Z,95325.59
2022-09-13T14:29:54.888Z,95312.91
2022-09-13T14:32:48.650Z,95333.56
2022-09-13T14:35:39.045Z,95329.84
2022-09-13T14:38:31.116Z,95330.66
2022-09-13T14:41:19.863Z,95331.69
2022-09-13T14:44:35.457Z,95337.25
2022-09-13T14:47:32.541Z,95327.91
2022-09-13T14:50:22.634Z,95340.59
2022-09-13T14:53:15.006Z,95337.94
2022-09-13T14:56:06.550Z,95338.34
2022-09-13T14:58:56.041Z,95329.84
2022-09-13T15:01:41.953Z,95314.84
2022-09-13T15:04:28.565Z,95304.63
2022-09-13T15:07:23.754Z,95304.22
2022-09-13T15:10:12.994Z,95319.25
2022-09-13T15:13:05.244Z,95320.66
2022-09-13T15:15:51.791Z,95323.69
2022-09-13T15:18:37.693Z,95325.19
2022-09-13T15:21:23.600Z,95322.69
2022-09-13T15:24:22.732Z,95332.22
2022-09-13T15:27:21.736Z,95326.50
2022-09-13T15:30:21.185Z,95339.72
2022-09-13T15:33:22.725Z,95334.81
2022-09-13T15:36:21.239Z,95320.78
2022-09-13T15:39:10.234Z,95333.63
2022-09-13T15:42:00.262Z,95324.59
2022-09-13T15:44:46.694Z,95338.94
2022-09-13T15:47:32.785Z,95346.91
2022-09-13T15:50:38.672Z,95338.81
2022-09-13T15:53:24.580Z,95340.44
2022-09-13T15:56:18.659Z,95345.13
2022-09-13T15:59:04.897Z,95356.09
2022-09-13T16:01:52.462Z,95363.84
2022-09-13T16:04:38.503Z,95351.59
2022-09-13T16:07:26.454Z,95364.31
2022-09-13T16:10:22.978Z,95367.47
2022-09-13T16:13:09.068Z,95354.97
2022-09-13T16:15:58.042Z,95325.34
2022-09-13T16:18:47.501Z,95363.06
2022-09-13T16:21:33.666Z,95350.00
2022-09-13T16:24:20.169Z,95361.84
2022-09-13T16:27:06.497Z,95334.06
2022-09-13T16:29:53.573Z,95346.94
2022-09-13T16:32:39.662Z,95354.41
2022-09-13T16:35:32.144Z,95353.91
2022-09-13T16:38:18.342Z,95357.50
2022-09-13T16:41:08.141Z,95362.47
2022-09-13T16:43:55.025Z,95356.25
2022-09-13T16:46:41.445Z,95348.63
2022-09-13T16:49:27.671Z,95359.31
2022-09-13T16:52:13.628Z,95359.66
2022-09-13T16:55:00.146Z,95359.63
2022-09-13T16:57:48.255Z,95358.00
2022-09-13T17:00:34.577Z,95367.88
2022-09-13T17:03:20.559Z,95371.97
2022-09-13T17:06:08.777Z,95364.63
2022-09-13T17:09:03.427Z,95378.56
2022-09-13T17:11:49.907Z,95366.00
2022-09-13T17:14:36.352Z,95361.34
2022-09-13T17:17:22.414Z,95362.41
2022-09-13T17:20:10.778Z,95377.97
2022-09-13T17:22:57.167Z,95389.97
2022-09-13T17:25:46.887Z,95380.38
2022-09-13T17:28:35.410Z,95388.28
2022-09-13T17:31:21.450Z,95398.06
2022-09-13T17:34:07.950Z,95395.81
2022-09-13T17:36:54.710Z,95403.41
2022-09-13T17:39:40.838Z,95406.09
2022-09-13T17:42:26.954Z,95410.41
2022-09-13T17:45:13.371Z,95417.72
2022-09-13T17:47:59.722Z,95413.28
2022-09-13T17:50:45.720Z,95421.38
2022-09-13T17:53:31.651Z,95414.19
2022-09-13T17:56:19.545Z,95425.53
2022-09-13T17:59:11.897Z,95423.22
2022-09-13T18:02:00.724Z,95428.31
2022-09-13T18:04:46.791Z,95437.25
2022-09-13T18:07:32.825Z,95442.06
2022-09-13T18:10:45.192Z,95440.06
2022-09-13T18:13:25.176Z,95443.25
2022-09-13T18:16:21.023Z,95447.16
2022-09-13T18:19:07.675Z,95445.97
2022-09-13T18:21:54.158Z,95445.84
2022-09-13T18:24:40.671Z,95445.53
2022-09-13T18:27:26.663Z,95455.47
2022-09-13T18:30:12.763Z,95442.19
2022-09-13T18:32:59.331Z,95460.66
2022-09-13T18:35:45.374Z,95455.66
2022-09-13T18:38:33.771Z,95462.84
2022-09-13T18:41:22.201Z,95470.19
2022-09-13T18:44:10.345Z,95484.50
2022-09-13T18:46:58.178Z,95478.16
2022-09-13T18:49:44.368Z,95484.00
2022-09-13T18:52:30.323Z,95487.22
2022-09-13T18:55:17.346Z,95500.16
2022-09-13T18:58:04.912Z,95504.91
2022-09-13T19:01:05.814Z,95507.72
2022-09-13T19:03:54.274Z,95495.38
2022-09-13T19:06:46.023Z,95494.13
2022-09-13T19:09:34.299Z,95499.22
2022-09-13T19:12:20.543Z,95501.03
2022-09-13T19:15:07.446Z,95498.22
2022-09-13T19:17:53.608Z,95491.91
2022-09-13T19:20:39.682Z,95498.88
2022-09-13T19:23:42.935Z,95490.41
2022-09-13T19:26:34.429Z,95502.78
2022-09-13T19:29:22.894Z,95490.09
2022-09-13T19:32:08.960Z,95499.31
2022-09-13T19:34:55.824Z,95488.09
2022-09-13T19:41:03.173Z,95495.22
2022-09-13T19:43:50.500Z,95475.97
2022-09-13T19:46:38.910Z,95490.69
2022-09-13T19:49:25.352Z,95482.94
2022-09-13T19:52:11.747Z,95486.72
2022-09-13T19:54:59.346Z,95485.19
2022-09-13T19:57:45.710Z,95486.53
2022-09-13T20:00:32.238Z,95484.19
2022-09-13T20:03:21.561Z,95489.50
2022-09-13T20:06:12.589Z,95470.19
2022-09-13T20:09:00.056Z,95490.56
2022-09-13T20:11:48.398Z,95495.63
2022-09-13T20:14:34.773Z,95495.13
2022-09-13T20:17:21.209Z,95513.06
2022-09-13T20:20:07.343Z,95508.47
2022-09-13T20:22:53.421Z,95508.97
2022-09-13T20:25:41.903Z,95521.78
2022-09-13T20:28:28.141Z,95512.47
2022-09-13T20:31:15.336Z,95515.66
2022-09-13T20:34:05.663Z,95502.13
2022-09-13T20:36:52.049Z,95514.59
2022-09-13T20:39:39.297Z,95510.94
2022-09-13T20:42:25.537Z,95521.41
2022-09-13T20:45:12.293Z,95506.59
2022-09-13T20:47:58.214Z,95517.63
2022-09-13T20:50:44.086Z,95517.88
2022-09-13T20:53:30.457Z,95517.16
2022-09-13T20:56:18.567Z,95514.19
2022-09-13T20:59:05.168Z,95517.97
2022-09-13T21:01:51.151Z,95521.13
2022-09-13T21:04:37.090Z,95522.44
2022-09-13T21:07:41.432Z,95510.13
2022-09-13T21:10:27.647Z,95527.31
2022-09-13T21:13:13.438Z,95523.41
2022-09-13T21:16:07.440Z,95535.75
2022-09-13T21:18:53.999Z,95542.59
2022-09-13T21:21:41.812Z,95537.25
2022-09-13T21:24:27.713Z,95524.41
2022-09-13T21:27:13.657Z,95531.13
2022-09-13T21:29:59.678Z,95521.44
2022-09-13T21:32:45.573Z,95531.81
2022-09-13T21:35:31.499Z,95524.00
2022-09-13T21:38:17.221Z,95531.31
2022-09-13T21:41:06.257Z,95526.59
2022-09-13T21:43:52.542Z,95525.38
2022-09-13T21:46:39.241Z,95540.19
2022-09-13T21:49:25.364Z,95532.41
2022-09-13T21:52:12.260Z,95541.81
2022-09-13T21:54:58.197Z,95533.09
2022-09-13T21:57:44.573Z,95522.81
2022-09-13T22:00:30.837Z,95522.66
2022-09-13T22:03:16.577Z,95531.75
2022-09-13T22:06:03.979Z,95514.66
2022-09-13T22:08:55.323Z,95533.47
2022-09-13T22:11:43.770Z,95535.22
2022-09-13T22:14:29.931Z,95536.72
2022-09-13T22:17:15.787Z,95515.88
2022-09-13T22:20:02.077Z,95529.88
2022-09-13T22:22:48.213Z,95518.91
2022-09-13T22:25:34.453Z,95507.41
2022-09-13T22:28:20.385Z,95514.47
2022-09-13T22:31:06.841Z,95527.94
2022-09-13T22:33:55.083Z,95538.31
2022-09-13T22:36:41.718Z,95526.53
2022-09-13T22:39:27.904Z,95531.78
2022-09-13T22:42:13.927Z,95528.50
2022-09-13T22:44:59.958Z,95526.84
2022-09-13T22:47:45.789Z,95533.97
2022-09-13T22:50:31.817Z,95527.16
2022-09-13T22:53:17.864Z,95529.84
2022-09-13T22:56:11.882Z,95525.56
2022-09-13T22:59:06.147Z,95532.59
2022-09-13T23:01:51.864Z,95509.28
2022-09-13T23:04:37.842Z,95523.13
2022-09-13T23:07:23.628Z,95537.44
2022-09-13T23:10:09.787Z,95530.88
2022-09-13T23:12:57.758Z,95501.97
2022-09-13T23:15:44.035Z,95525.09
2022-09-13T23:18:31.243Z,95535.06
2022-09-13T23:21:18.697Z,95510.06
2022-09-13T23:24:06.558Z,95523.31
2022-09-13T23:26:55.201Z,95521.53
2022-09-13T23:29:41.293Z,95534.13
2022-09-13T23:32:27.224Z,95536.41
2022-09-13T23:35:13.117Z,95523.00
2022-09-13T23:37:59.209Z,95516.41
2022-09-13T23:40:45.408Z,95517.88
2022-09-13T23:43:31.443Z,95532.81
2022-09-13T23:46:18.362Z,95518.75
2022-09-13T23:49:04.594Z,95523.94
2022-09-13T23:51:51.197Z,95526.25
2022-09-13T23:54:36.973Z,95536.00
2022-09-13T23:57:23.208Z,95542.66
